Groton City, New York
Current Conditions -  °F | °C
As of 7:56 AM on Saturday 25 Oct 2014 (Local Time) from KITH Reporting Station
Overcast Overcast  
Wind Chill: 42°   Ceiling: 5000
Heat Index: 42°   Visibility: 10mi
Dew Point: 41°   Wind: 3mph
Humidity: 97%   Direction: 150°SSE
Pressure: 29.86"   Gusts: NA
Location:  42.5874°N, 76.3904°W
Report Text: KITH 251156Z 15003KT 10SM SCT033 OVC050 06/05 A2986 RMK AO2 58010 7//// T00550050 10055 20016 SLP117
Loading
Personal Weather Stations






























Interactive Weather Map
Tropical Storm Tracking
New forecast layout! Learn more

10-Day Weather Forecast

Advertisements
Track Severe Weather on mobile